createdAt,value
2016-05-30T00:00:48.516Z,957.86
2016-05-30T00:01:48.518Z,957.84
2016-05-30T00:02:48.521Z,957.85
2016-05-30T00:03:48.524Z,957.86
2016-05-30T00:04:48.511Z,957.92
2016-05-30T00:05:48.529Z,957.83
2016-05-30T00:06:48.532Z,957.87
2016-05-30T00:07:48.518Z,957.89
2016-05-30T00:08:48.521Z,957.9
2016-05-30T00:09:48.524Z,957.86
2016-05-30T00:10:48.527Z,957.86
2016-05-30T00:11:48.529Z,957.86
2016-05-30T00:12:48.548Z,957.79
2016-05-30T00:13:48.551Z,957.82
2016-05-30T00:14:48.537Z,957.88
2016-05-30T00:15:48.524Z,957.85
2016-05-30T00:16:48.527Z,957.86
2016-05-30T00:17:48.545Z,957.87
2016-05-30T00:18:48.532Z,957.89
2016-05-30T00:19:48.535Z,957.9
2016-05-30T00:20:48.553Z,957.92
2016-05-30T00:21:48.556Z,957.89
2016-05-30T00:22:48.543Z,957.85
2016-05-30T00:23:48.545Z,957.85
2016-05-30T00:24:48.548Z,957.85
2016-05-30T00:25:48.550Z,957.86
2016-05-30T00:26:48.553Z,957.86
2016-05-30T00:27:48.542Z,957.86
2016-05-30T00:28:48.544Z,957.87
2016-05-30T00:29:48.562Z,957.8
2016-05-30T00:30:48.549Z,957.78
2016-05-30T00:31:48.552Z,957.79
2016-05-30T00:32:48.554Z,957.77
2016-05-30T00:33:48.557Z,957.79
2016-05-30T00:34:48.560Z,957.77
2016-05-30T00:35:48.563Z,957.8
2016-05-30T00:36:48.644Z,957.77
2016-05-30T00:37:48.568Z,957.74
2016-05-30T00:38:48.554Z,957.78
2016-05-30T00:39:48.558Z,957.76
2016-05-30T00:40:48.561Z,957.77
2016-05-30T00:41:48.563Z,957.77
2016-05-30T00:42:48.566Z,957.8
2016-05-30T00:43:48.568Z,957.79
2016-05-30T00:44:48.571Z,957.77
2016-05-30T00:45:48.574Z,957.77
2016-05-30T00:46:48.577Z,957.75
2016-05-30T00:47:48.579Z,957.76
2016-05-30T00:48:48.582Z,957.73
2016-05-30T00:49:48.570Z,957.77
2016-05-30T00:50:48.587Z,957.73
2016-05-30T00:51:48.575Z,957.77
2016-05-30T00:52:48.577Z,957.73
2016-05-30T00:53:48.580Z,957.73
2016-05-30T00:54:48.583Z,957.72
2016-05-30T00:55:48.586Z,957.75
2016-05-30T00:56:48.572Z,957.73
2016-05-30T00:57:48.591Z,957.76
2016-05-30T00:58:48.594Z,957.75
2016-05-30T00:59:48.596Z,957.74
2016-05-30T01:00:48.583Z,957.72
2016-05-30T01:01:48.601Z,957.73
2016-05-30T01:02:48.588Z,957.68
2016-05-30T01:03:48.591Z,957.69
2016-05-30T01:04:48.594Z,957.71
2016-05-30T01:05:48.596Z,957.7
2016-05-30T01:06:48.661Z,957.71
2016-05-30T01:07:48.602Z,957.69
2016-05-30T01:08:48.604Z,957.68
2016-05-30T01:09:48.591Z,957.68
2016-05-30T01:10:48.593Z,957.67
2016-05-30T01:11:48.596Z,957.66
2016-05-30T01:12:48.599Z,957.66
2016-05-30T01:13:48.602Z,957.66
2016-05-30T01:14:48.604Z,957.7
2016-05-30T01:15:48.608Z,957.66
2016-05-30T01:16:48.610Z,957.67
2016-05-30T01:17:48.613Z,957.67
2016-05-30T01:18:48.615Z,957.71
2016-05-30T01:19:48.603Z,957.67
2016-05-30T01:20:48.606Z,957.65
2016-05-30T01:21:48.609Z,957.67
2016-05-30T01:22:48.611Z,957.63
2016-05-30T01:23:48.614Z,957.65
2016-05-30T01:24:48.617Z,957.67
2016-05-30T01:25:48.620Z,957.68
2016-05-30T01:26:48.622Z,957.67
2016-05-30T01:27:48.625Z,957.6
2016-05-30T01:28:48.627Z,957.68
2016-05-30T01:29:48.614Z,957.68
2016-05-30T01:30:48.617Z,957.65
2016-05-30T01:31:48.619Z,957.62
2016-05-30T01:32:48.622Z,957.64
2016-05-30T01:33:48.640Z,957.65
2016-05-30T01:34:48.628Z,957.61
2016-05-30T01:35:48.630Z,957.64
2016-05-30T01:36:48.633Z,957.66
2016-05-30T01:37:48.635Z,957.63
2016-05-30T01:38:48.638Z,957.62
2016-05-30T01:39:48.641Z,957.63
2016-05-30T01:40:48.644Z,957.66
2016-05-30T01:41:48.630Z,957.64
2016-05-30T01:42:48.633Z,957.66
2016-05-30T01:43:48.636Z,957.64
2016-05-30T01:44:48.638Z,957.65
2016-05-30T01:45:48.641Z,957.65
2016-05-30T01:46:48.643Z,957.65
2016-05-30T01:47:48.646Z,957.66
2016-05-30T01:48:48.649Z,957.64
2016-05-30T01:49:48.652Z,957.63
2016-05-30T01:50:48.654Z,957.66
2016-05-30T01:51:48.657Z,957.63
2016-05-30T01:52:48.645Z,957.63
2016-05-30T01:53:48.647Z,957.63
2016-05-30T01:54:48.650Z,957.62
2016-05-30T01:55:48.652Z,957.6
2016-05-30T01:56:48.655Z,957.56
2016-05-30T01:57:48.658Z,957.56
2016-05-30T01:58:48.661Z,957.6
2016-05-30T01:59:48.663Z,957.56
2016-05-30T02:00:48.667Z,957.57
2016-05-30T02:01:48.653Z,957.59
2016-05-30T02:02:48.655Z,957.6
2016-05-30T02:03:48.658Z,957.57
2016-05-30T02:04:48.661Z,957.56
2016-05-30T02:05:48.664Z,957.55
2016-05-30T02:06:48.667Z,957.57
2016-05-30T02:07:48.670Z,957.54
2016-05-30T02:08:48.671Z,957.55
2016-05-30T02:09:48.660Z,957.55
2016-05-30T02:10:48.662Z,957.56
2016-05-30T02:11:48.665Z,957.6
2016-05-30T02:12:48.668Z,957.56
2016-05-30T02:13:48.670Z,957.57
2016-05-30T02:14:48.673Z,957.57
2016-05-30T02:15:48.676Z,957.55
2016-05-30T02:16:48.679Z,957.52
2016-05-30T02:17:48.681Z,957.59
2016-05-30T02:18:48.684Z,957.6
2016-05-30T02:19:48.687Z,957.59
2016-05-30T02:20:48.673Z,957.58
2016-05-30T02:21:48.692Z,957.61
2016-05-30T02:22:48.694Z,957.6
2016-05-30T02:23:48.681Z,957.66
2016-05-30T02:24:48.684Z,957.61
2016-05-30T02:25:48.687Z,957.65
2016-05-30T02:26:48.689Z,957.62
2016-05-30T02:27:48.692Z,957.66
2016-05-30T02:28:48.695Z,957.69
2016-05-30T02:29:48.697Z,957.71
2016-05-30T02:30:48.700Z,957.7
2016-05-30T02:31:48.686Z,957.73
2016-05-30T02:32:48.690Z,957.72
2016-05-30T02:33:48.692Z,957.68
2016-05-30T02:34:48.695Z,957.67
2016-05-30T02:35:48.697Z,957.66
2016-05-30T02:36:48.716Z,957.63
2016-05-30T02:37:48.703Z,957.61
2016-05-30T02:38:48.703Z,957.6
2016-05-30T02:39:48.733Z,957.65
2016-05-30T02:40:48.777Z,957.63
2016-05-30T02:41:48.792Z,957.6
2016-05-30T02:42:48.822Z,957.6
2016-05-30T02:43:48.843Z,957.65
2016-05-30T02:44:48.856Z,957.61
2016-05-30T02:45:48.868Z,957.62
2016-05-30T02:46:48.880Z,957.6
2016-05-30T02:47:48.892Z,957.59
2016-05-30T02:48:48.902Z,957.6
2016-05-30T02:49:48.907Z,957.58
2016-05-30T02:50:48.898Z,957.6
2016-05-30T02:51:48.904Z,957.59
2016-05-30T02:52:48.910Z,957.63
2016-05-30T02:53:48.915Z,957.65
2016-05-30T02:54:48.919Z,957.66
2016-05-30T02:55:48.923Z,957.66
2016-05-30T02:56:48.927Z,957.66
2016-05-30T02:57:48.931Z,957.69
2016-05-30T02:58:48.934Z,957.72
2016-05-30T02:59:48.938Z,957.69
2016-05-30T03:00:48.926Z,957.65
2016-05-30T03:01:48.928Z,957.71
2016-05-30T03:02:48.932Z,957.71
2016-05-30T03:03:48.935Z,957.68
2016-05-30T03:04:48.938Z,957.72
2016-05-30T03:05:48.941Z,957.74
2016-05-30T03:06:49.084Z,957.7
2016-05-30T03:07:48.977Z,957.7
2016-05-30T03:08:48.949Z,957.74
2016-05-30T03:09:48.952Z,957.71
2016-05-30T03:10:48.939Z,957.71
2016-05-30T03:11:48.942Z,957.74
2016-05-30T03:12:48.944Z,957.75
2016-05-30T03:13:48.947Z,957.78
2016-05-30T03:14:48.950Z,957.73
2016-05-30T03:15:48.953Z,957.8
2016-05-30T03:16:48.955Z,957.71
2016-05-30T03:17:48.958Z,957.77
2016-05-30T03:18:48.944Z,957.79
2016-05-30T03:19:48.947Z,957.77
2016-05-30T03:20:48.950Z,957.76
2016-05-30T03:21:48.952Z,957.76
2016-05-30T03:22:48.955Z,957.81
2016-05-30T03:23:48.958Z,957.77
2016-05-30T03:24:48.961Z,957.82
2016-05-30T03:25:48.963Z,957.8
2016-05-30T03:26:48.965Z,957.8
2016-05-30T03:27:48.954Z,957.81
2016-05-30T03:28:48.956Z,957.82
2016-05-30T03:29:48.959Z,957.82
2016-05-30T03:30:48.961Z,957.82
2016-05-30T03:31:48.964Z,957.84
2016-05-30T03:32:48.967Z,957.83
2016-05-30T03:33:48.969Z,957.89
2016-05-30T03:34:48.972Z,957.82
2016-05-30T03:35:48.975Z,957.82
2016-05-30T03:36:48.978Z,957.82
2016-05-30T03:37:48.965Z,957.83
2016-05-30T03:38:48.968Z,957.84
2016-05-30T03:39:48.969Z,957.85
2016-05-30T03:40:48.973Z,957.85
2016-05-30T03:41:48.976Z,957.9
2016-05-30T03:42:48.978Z,957.83
2016-05-30T03:43:48.981Z,957.89
2016-05-30T03:44:48.984Z,957.84
2016-05-30T03:45:48.986Z,957.82
2016-05-30T03:46:48.989Z,957.86
2016-05-30T03:47:48.991Z,957.85
2016-05-30T03:48:48.978Z,957.89
2016-05-30T03:49:48.997Z,957.89
2016-05-30T03:50:48.984Z,957.93
2016-05-30T03:51:48.986Z,957.88
2016-05-30T03:52:48.989Z,957.92
2016-05-30T03:53:48.991Z,957.9
2016-05-30T03:54:48.994Z,957.89
2016-05-30T03:55:48.997Z,957.92
2016-05-30T03:56:49.000Z,957.9
2016-05-30T03:57:48.987Z,957.89
2016-05-30T03:58:48.990Z,957.92
2016-05-30T03:59:48.993Z,957.94
2016-05-30T04:00:48.995Z,957.92
2016-05-30T04:01:48.998Z,957.92
2016-05-30T04:02:49.000Z,957.92
2016-05-30T04:03:49.004Z,957.97
2016-05-30T04:04:49.006Z,957.98
2016-05-30T04:05:49.009Z,957.95
2016-05-30T04:06:48.995Z,957.98
2016-05-30T04:07:48.998Z,958.02
2016-05-30T04:08:49.001Z,957.97
2016-05-30T04:09:49.004Z,957.97
2016-05-30T04:10:49.007Z,957.98
2016-05-30T04:11:49.009Z,958.01
2016-05-30T04:12:49.011Z,957.98
2016-05-30T04:13:49.015Z,958.01
2016-05-30T04:14:49.001Z,958.03
2016-05-30T04:15:49.004Z,958
2016-05-30T04:16:49.007Z,958
2016-05-30T04:17:49.009Z,958.06
2016-05-30T04:18:49.012Z,958.05
2016-05-30T04:19:49.015Z,958.08
2016-05-30T04:20:49.017Z,958.04
2016-05-30T04:21:49.020Z,958.15
2016-05-30T04:22:49.023Z,958.09
2016-05-30T04:23:49.025Z,958.06
2016-05-30T04:24:49.013Z,958.07
2016-05-30T04:25:49.015Z,958.14
2016-05-30T04:26:49.018Z,958.1
2016-05-30T04:27:49.021Z,958.09
2016-05-30T04:28:49.023Z,958.11
2016-05-30T04:29:49.026Z,958.08
2016-05-30T04:30:49.029Z,958.11
2016-05-30T04:31:49.032Z,958.11
2016-05-30T04:32:49.034Z,958.14
2016-05-30T04:33:49.021Z,958.07
2016-05-30T04:34:49.039Z,958.1
2016-05-30T04:35:49.026Z,958.14
2016-05-30T04:36:49.030Z,958.11
2016-05-30T04:37:49.032Z,958.09
2016-05-30T04:38:49.034Z,958.08
2016-05-30T04:39:49.037Z,958.11
2016-05-30T04:40:49.040Z,958.13
2016-05-30T04:41:49.042Z,958.08
2016-05-30T04:42:49.031Z,958.05
2016-05-30T04:43:49.033Z,958.14
2016-05-30T04:44:49.035Z,958.05
2016-05-30T04:45:49.054Z,958.06
2016-05-30T04:46:49.041Z,958.07
2016-05-30T04:47:49.044Z,958.06
2016-05-30T04:48:49.047Z,958.03
2016-05-30T04:49:49.049Z,958.05
2016-05-30T04:50:49.052Z,958.02
2016-05-30T04:51:49.055Z,958.02
2016-05-30T04:52:49.057Z,958.01
2016-05-30T04:53:49.044Z,957.99
2016-05-30T04:54:49.063Z,958.02
2016-05-30T04:55:49.065Z,957.99
2016-05-30T04:56:49.068Z,958.01
2016-05-30T04:57:49.055Z,957.98
2016-05-30T04:58:49.057Z,957.96
2016-05-30T04:59:49.060Z,957.96
2016-05-30T05:00:49.063Z,957.96
2016-05-30T05:01:49.065Z,957.94
2016-05-30T05:02:49.052Z,957.97
2016-05-30T05:03:49.055Z,957.98
2016-05-30T05:04:49.057Z,957.98
2016-05-30T05:05:49.060Z,958.02
2016-05-30T05:06:49.220Z,957.98
2016-05-30T05:07:49.065Z,958.01
2016-05-30T05:08:49.068Z,957.99
2016-05-30T05:09:49.071Z,958.04
2016-05-30T05:10:49.073Z,958.05
2016-05-30T05:11:49.076Z,958.02
2016-05-30T05:12:49.079Z,958.05
2016-05-30T05:13:49.066Z,958.02
2016-05-30T05:14:49.069Z,958.09
2016-05-30T05:15:49.072Z,958.05
2016-05-30T05:16:49.215Z,958.01
2016-05-30T05:17:49.077Z,958.01
2016-05-30T05:18:49.080Z,958.05
2016-05-30T05:19:49.083Z,958.03
2016-05-30T05:20:49.086Z,958.03
2016-05-30T05:21:49.182Z,958.05
2016-05-30T05:22:49.091Z,958
2016-05-30T05:23:49.078Z,958.03
2016-05-30T05:24:49.080Z,958.01
2016-05-30T05:25:49.083Z,958.03
2016-05-30T05:26:49.086Z,958.02
2016-05-30T05:27:49.089Z,958.04
2016-05-30T05:28:49.107Z,958.01
2016-05-30T05:29:49.093Z,958.03
2016-05-30T05:30:49.097Z,958.01
2016-05-30T05:31:49.099Z,957.97
2016-05-30T05:32:49.102Z,958
2016-05-30T05:33:49.088Z,958.01
2016-05-30T05:34:49.107Z,958
2016-05-30T05:35:49.094Z,958
2016-05-30T05:36:49.112Z,958.01
2016-05-30T05:37:49.099Z,957.99
2016-05-30T05:38:49.102Z,958
2016-05-30T05:39:49.104Z,957.96
2016-05-30T05:40:49.108Z,958.02
2016-05-30T05:41:49.108Z,958
2016-05-30T05:42:49.110Z,958.01
2016-05-30T05:43:49.098Z,958.04
2016-05-30T05:44:49.100Z,958.03
2016-05-30T05:45:49.103Z,958.04
2016-05-30T05:46:49.105Z,958.03
2016-05-30T05:47:49.109Z,958.07
2016-05-30T05:48:49.111Z,958.03
2016-05-30T05:49:49.114Z,958.06
2016-05-30T05:50:49.117Z,958.06
2016-05-30T05:51:49.119Z,958.03
2016-05-30T05:52:49.121Z,958.04
2016-05-30T05:53:49.124Z,958.06
2016-05-30T05:54:49.112Z,958.09
2016-05-30T05:55:49.130Z,958.09
2016-05-30T05:56:49.117Z,958.06
2016-05-30T05:57:49.119Z,958.09
2016-05-30T05:58:49.122Z,958.09
2016-05-30T05:59:49.125Z,958.11
2016-05-30T06:00:49.128Z,958.11
2016-05-30T06:01:49.130Z,958.09
2016-05-30T06:02:49.133Z,958.13
2016-05-30T06:03:49.136Z,958.14
2016-05-30T06:04:49.138Z,958.12
2016-05-30T06:05:49.141Z,958.12
2016-05-30T06:06:49.207Z,958.08
2016-05-30T06:07:49.131Z,958.04
2016-05-30T06:08:49.134Z,958.1
2016-05-30T06:09:49.137Z,958.12
2016-05-30T06:10:49.139Z,958.13
2016-05-30T06:11:49.142Z,958.15
2016-05-30T06:12:49.145Z,958.1
2016-05-30T06:13:49.147Z,958.11
2016-05-30T06:14:49.150Z,958.12
2016-05-30T06:15:49.153Z,958.1
2016-05-30T06:16:49.155Z,958.09
2016-05-30T06:17:49.158Z,958.11
2016-05-30T06:18:49.161Z,958.1
2016-05-30T06:19:49.163Z,958.12
2016-05-30T06:20:49.150Z,958.14
2016-05-30T06:21:49.153Z,958.12
2016-05-30T06:22:49.155Z,958.13
2016-05-30T06:23:49.158Z,958.13
2016-05-30T06:24:49.161Z,958.16
2016-05-30T06:25:49.163Z,958.22
2016-05-30T06:26:49.166Z,958.16
2016-05-30T06:27:49.185Z,958.23
2016-05-30T06:28:49.171Z,958.21
2016-05-30T06:29:49.174Z,958.22
2016-05-30T06:30:49.177Z,958.23
2016-05-30T06:31:49.179Z,958.2
2016-05-30T06:32:49.166Z,958.23
2016-05-30T06:33:49.185Z,958.22
2016-05-30T06:34:49.172Z,958.24
2016-05-30T06:35:49.175Z,958.25
2016-05-30T06:36:49.177Z,958.22
2016-05-30T06:37:49.180Z,958.24
2016-05-30T06:38:49.182Z,958.21
2016-05-30T06:39:49.185Z,958.15
2016-05-30T06:40:49.188Z,958.21
2016-05-30T06:41:49.190Z,958.2
2016-05-30T06:42:49.194Z,958.19
2016-05-30T06:43:49.196Z,958.22
2016-05-30T06:44:49.199Z,958.21
2016-05-30T06:45:49.201Z,958.23
2016-05-30T06:46:49.189Z,958.21
2016-05-30T06:47:49.207Z,958.18
2016-05-30T06:48:49.194Z,958.2
2016-05-30T06:49:49.198Z,958.19
2016-05-30T06:50:49.200Z,958.17
2016-05-30T06:51:49.717Z,958.25
2016-05-30T06:52:49.221Z,958.23
2016-05-30T06:53:49.208Z,958.24
2016-05-30T06:54:49.210Z,958.2
2016-05-30T06:55:49.214Z,958.24
2016-05-30T06:56:49.231Z,958.24
2016-05-30T06:57:49.219Z,958.23
2016-05-30T06:58:49.222Z,958.19
2016-05-30T06:59:49.224Z,958.23
2016-05-30T07:00:49.227Z,958.23
2016-05-30T07:01:49.229Z,958.18
2016-05-30T07:02:49.216Z,958.16
2016-05-30T07:03:49.235Z,958.21
2016-05-30T07:04:49.238Z,958.2
2016-05-30T07:05:50.006Z,958.21
2016-05-30T07:06:49.290Z,958.22
2016-05-30T07:07:49.246Z,958.23
2016-05-30T07:08:49.248Z,958.26
2016-05-30T07:09:49.235Z,958.25
2016-05-30T07:10:49.237Z,958.25
2016-05-30T07:11:49.241Z,958.24
2016-05-30T07:12:49.243Z,958.26
2016-05-30T07:13:49.245Z,958.24
2016-05-30T07:14:49.249Z,958.27
2016-05-30T07:15:49.251Z,958.26
2016-05-30T07:16:49.254Z,958.23
2016-05-30T07:18:49.260Z,958.23
2016-05-30T07:19:49.262Z,958.19
2016-05-30T07:20:49.265Z,958.18
2016-05-30T07:21:49.267Z,958.19
2016-05-30T07:22:49.270Z,958.19
2016-05-30T07:23:49.273Z,958.15
2016-05-30T07:24:49.275Z,958.15
2016-05-30T07:25:49.278Z,958.17
2016-05-30T07:26:49.281Z,958.17
2016-05-30T07:27:50.737Z,958.15
2016-05-30T07:28:49.286Z,958.18
2016-05-30T07:29:49.273Z,958.16
2016-05-30T07:30:49.292Z,958.17
2016-05-30T07:31:49.294Z,958.18
2016-05-30T07:32:49.281Z,958.21
2016-05-30T07:33:49.283Z,958.19
2016-05-30T07:34:49.286Z,958.18
2016-05-30T07:35:49.289Z,958.14
2016-05-30T07:36:49.292Z,958.17
2016-05-30T07:37:49.294Z,958.16
2016-05-30T07:38:49.297Z,958.15
2016-05-30T07:39:49.299Z,958.14
2016-05-30T07:40:50.350Z,958.11
2016-05-30T07:41:49.305Z,958.13
2016-05-30T07:42:49.308Z,958.12
2016-05-30T07:43:49.310Z,958.17
2016-05-30T07:44:49.314Z,958.13
2016-05-30T07:45:49.316Z,958.17
2016-05-30T07:46:49.318Z,958.22
2016-05-30T07:47:49.321Z,958.19
2016-05-30T07:48:49.324Z,958.18
2016-05-30T07:49:49.327Z,958.21
2016-05-30T07:50:49.329Z,958.16
2016-05-30T07:51:49.754Z,958.18
2016-05-30T07:52:49.334Z,958.15
2016-05-30T07:53:49.337Z,958.18
2016-05-30T07:54:49.340Z,958.16
2016-05-30T07:55:49.343Z,958.16
2016-05-30T07:56:49.346Z,958.16
2016-05-30T07:57:49.348Z,958.16
2016-05-30T07:58:49.351Z,958.17
2016-05-30T07:59:49.353Z,958.13
2016-05-30T08:00:49.356Z,958.17
2016-05-30T08:01:49.359Z,958.16
2016-05-30T08:02:49.362Z,958.09
2016-05-30T08:03:49.364Z,958.11
2016-05-30T08:04:49.367Z,958.08
2016-05-30T08:05:49.370Z,958.08
2016-05-30T08:06:49.372Z,958.09
2016-05-30T08:07:49.375Z,958.1
2016-05-30T08:08:49.378Z,958.14
2016-05-30T08:09:49.381Z,958.15
2016-05-30T08:10:49.383Z,958.13
2016-05-30T08:11:49.386Z,958.11
2016-05-30T08:12:49.388Z,958.14
2016-05-30T08:13:49.391Z,958.11
2016-05-30T08:14:49.394Z,958.13
2016-05-30T08:15:49.397Z,958.13
2016-05-30T08:16:49.400Z,958.15
2016-05-30T08:17:49.402Z,958.14
2016-05-30T08:18:49.405Z,958.13
2016-05-30T08:19:49.407Z,958.15
2016-05-30T08:20:49.410Z,958.15
2016-05-30T08:21:49.413Z,958.16
2016-05-30T08:22:49.495Z,958.18
2016-05-30T08:23:49.419Z,958.16
2016-05-30T08:24:49.420Z,958.16
2016-05-30T08:25:49.423Z,958.17
2016-05-30T08:26:49.426Z,958.19
2016-05-30T08:27:49.429Z,958.17
2016-05-30T08:28:49.432Z,958.15
2016-05-30T08:29:49.434Z,958.17
2016-05-30T08:30:49.437Z,958.15
2016-05-30T08:31:49.439Z,958.2
2016-05-30T08:32:49.442Z,958.19
2016-05-30T08:33:49.445Z,958.16
2016-05-30T08:34:49.448Z,958.16
2016-05-30T08:35:49.450Z,958.16
2016-05-30T08:36:49.453Z,958.13
2016-05-30T08:37:49.456Z,958.11
2016-05-30T08:38:49.505Z,958.13
2016-05-30T08:39:49.461Z,958.1
2016-05-30T08:40:49.464Z,958.13
2016-05-30T08:41:49.467Z,958.11
2016-05-30T08:42:49.470Z,958.12
2016-05-30T08:43:49.471Z,958.16
2016-05-30T08:44:49.475Z,958.14
2016-05-30T08:45:49.477Z,958.11
2016-05-30T08:46:49.480Z,958.15
2016-05-30T08:47:49.482Z,958.13
2016-05-30T08:48:49.485Z,958.13
2016-05-30T08:49:49.488Z,958.15
2016-05-30T08:50:49.491Z,958.14
2016-05-30T08:51:49.494Z,958.16
2016-05-30T08:52:49.496Z,958.16
2016-05-30T08:53:49.498Z,958.14
2016-05-30T08:54:49.501Z,958.14
2016-05-30T08:55:49.520Z,958.16
2016-05-30T08:56:49.507Z,958.18
2016-05-30T08:57:49.510Z,958.19
2016-05-30T08:58:49.513Z,958.17
2016-05-30T08:59:49.515Z,958.16
2016-05-30T09:00:49.517Z,958.19
2016-05-30T09:01:49.520Z,958.17
2016-05-30T09:02:49.523Z,958.19
2016-05-30T09:03:49.526Z,958.23
2016-05-30T09:04:49.529Z,958.23
2016-05-30T09:05:49.531Z,958.22
2016-05-30T09:06:49.691Z,958.26
2016-05-30T09:07:49.536Z,958.3
2016-05-30T09:08:49.540Z,958.26
2016-05-30T09:09:49.542Z,958.26
2016-05-30T09:10:49.544Z,958.26
2016-05-30T09:11:49.547Z,958.24
2016-05-30T09:12:49.550Z,958.26
2016-05-30T09:13:49.553Z,958.22
2016-05-30T09:14:49.555Z,958.25
2016-05-30T09:15:49.558Z,958.24
2016-05-30T09:16:49.560Z,958.26
2016-05-30T09:17:49.563Z,958.23
2016-05-30T09:18:49.566Z,958.2
2016-05-30T09:19:49.585Z,958.21
2016-05-30T09:20:49.572Z,958.23
2016-05-30T09:21:49.668Z,958.19
2016-05-30T09:22:49.593Z,958.18
2016-05-30T09:23:49.595Z,958.23
2016-05-30T09:24:49.598Z,958.23
2016-05-30T09:25:49.601Z,958.26
2016-05-30T09:26:49.604Z,958.23
2016-05-30T09:27:49.606Z,958.28
2016-05-30T09:28:49.608Z,958.24
2016-05-30T09:29:49.612Z,958.24
2016-05-30T09:30:49.614Z,958.24
2016-05-30T09:31:49.617Z,958.25
2016-05-30T09:32:49.620Z,958.25
2016-05-30T09:33:49.623Z,958.18
2016-05-30T09:34:49.625Z,958.24
2016-05-30T09:35:49.628Z,958.21
2016-05-30T09:36:49.646Z,958.21
2016-05-30T09:37:49.634Z,958.25
2016-05-30T09:38:49.636Z,958.15
2016-05-30T09:39:49.638Z,958.22
2016-05-30T09:40:49.641Z,958.22
2016-05-30T09:41:49.644Z,958.16
2016-05-30T09:42:49.646Z,958.18
2016-05-30T09:43:49.650Z,958.17
2016-05-30T09:44:49.652Z,958.2
2016-05-30T09:45:49.654Z,958.17
2016-05-30T09:46:49.658Z,958.2
2016-05-30T09:47:49.676Z,958.19
2016-05-30T09:48:49.662Z,958.22
2016-05-30T09:49:49.666Z,958.21
2016-05-30T09:50:49.668Z,958.15
2016-05-30T09:51:49.687Z,958.17
2016-05-30T09:52:49.689Z,958.17
2016-05-30T09:53:49.676Z,958.16
2016-05-30T09:54:49.694Z,958.19
2016-05-30T09:55:49.697Z,958.2
2016-05-30T09:56:49.700Z,958.28
2016-05-30T09:57:49.703Z,958.29
2016-05-30T09:58:49.705Z,958.26
2016-05-30T09:59:49.708Z,958.29
2016-05-30T10:00:49.711Z,958.28
2016-05-30T10:01:49.714Z,958.27
2016-05-30T10:02:49.716Z,958.3
2016-05-30T10:03:49.719Z,958.27
2016-05-30T10:04:49.722Z,958.28
2016-05-30T10:05:49.725Z,958.33
2016-05-30T10:06:49.727Z,958.31
2016-05-30T10:07:49.730Z,958.3
2016-05-30T10:08:49.733Z,958.31
2016-05-30T10:09:49.736Z,958.31
2016-05-30T10:10:49.753Z,958.33
2016-05-30T10:11:49.756Z,958.32
2016-05-30T10:12:49.759Z,958.31
2016-05-30T10:13:49.761Z,958.28
2016-05-30T10:14:49.764Z,958.3
2016-05-30T10:15:49.767Z,958.32
2016-05-30T10:16:49.769Z,958.33
2016-05-30T10:17:49.772Z,958.3
2016-05-30T10:18:49.774Z,958.27
2016-05-30T10:19:49.777Z,958.32
2016-05-30T10:20:49.780Z,958.3
2016-05-30T10:21:49.782Z,958.32
2016-05-30T10:22:49.785Z,958.27
2016-05-30T10:23:49.788Z,958.32
2016-05-30T10:24:49.807Z,958.33
2016-05-30T10:25:49.793Z,958.3
2016-05-30T10:26:49.812Z,958.26
2016-05-30T10:27:49.815Z,958.28
2016-05-30T10:28:49.817Z,958.3
2016-05-30T10:29:49.820Z,958.3
2016-05-30T10:30:49.823Z,958.32
2016-05-30T10:31:49.825Z,958.33
2016-05-30T10:32:49.828Z,958.36
2016-05-30T10:33:49.831Z,958.28
2016-05-30T10:34:49.833Z,958.3
2016-05-30T10:35:49.836Z,958.28
2016-05-30T10:36:49.855Z,958.3
2016-05-30T10:37:49.858Z,958.33
2016-05-30T10:38:49.860Z,958.31
2016-05-30T10:39:49.863Z,958.36
2016-05-30T10:40:49.865Z,958.39
2016-05-30T10:41:49.869Z,958.33
2016-05-30T10:42:49.871Z,958.31
2016-05-30T10:43:49.874Z,958.35
2016-05-30T10:44:49.877Z,958.32
2016-05-30T10:45:49.879Z,958.39
2016-05-30T10:46:49.881Z,958.31
2016-05-30T10:47:49.885Z,958.33
2016-05-30T10:48:49.887Z,958.32
2016-05-30T10:49:49.904Z,958.31
2016-05-30T10:50:49.907Z,958.31
2016-05-30T10:51:49.911Z,958.28
2016-05-30T10:52:49.913Z,958.31
2016-05-30T10:53:49.916Z,958.3
2016-05-30T10:54:49.919Z,958.26
2016-05-30T10:55:49.921Z,958.26
2016-05-30T10:56:49.924Z,958.32
2016-05-30T10:57:49.927Z,958.34
2016-05-30T10:58:49.945Z,958.31
2016-05-30T10:59:49.932Z,958.27
2016-05-30T11:00:49.950Z,958.3
2016-05-30T11:01:49.953Z,958.29
2016-05-30T11:02:49.956Z,958.3
2016-05-30T11:03:49.958Z,958.33
2016-05-30T11:04:49.961Z,958.23
2016-05-30T11:05:49.964Z,958.31
2016-05-30T11:06:50.575Z,958.22
2016-05-30T11:07:49.969Z,958.24
2016-05-30T11:08:49.972Z,958.24
2016-05-30T11:09:49.974Z,958.25
2016-05-30T11:10:49.977Z,958.22
2016-05-30T11:11:49.995Z,958.22
2016-05-30T11:12:49.998Z,958.2
2016-05-30T11:13:50.000Z,958.2
2016-05-30T11:14:50.019Z,958.21
2016-05-30T11:15:50.006Z,958.24
2016-05-30T11:16:50.008Z,958.23
2016-05-30T11:17:50.011Z,958.22
2016-05-30T11:18:50.014Z,958.22
2016-05-30T11:19:50.017Z,958.21
2016-05-30T11:20:50.035Z,958.22
2016-05-30T11:21:50.038Z,958.25
2016-05-30T11:22:50.041Z,958.25
2016-05-30T11:23:50.044Z,958.22
2016-05-30T11:24:50.046Z,958.24
2016-05-30T11:25:50.049Z,958.26
2016-05-30T11:26:50.067Z,958.25
2016-05-30T11:27:50.070Z,958.21
2016-05-30T11:28:50.072Z,958.25
2016-05-30T11:29:50.076Z,958.27
2016-05-30T11:30:50.078Z,958.18
2016-05-30T11:31:50.081Z,958.2
2016-05-30T11:32:50.083Z,958.15
2016-05-30T11:33:50.101Z,958.23
2016-05-30T11:34:50.089Z,958.2
2016-05-30T11:35:50.092Z,958.2
2016-05-30T11:36:50.219Z,958.23
2016-05-30T11:37:50.112Z,958.23
2016-05-30T11:38:50.114Z,958.2
2016-05-30T11:39:50.118Z,958.2
2016-05-30T11:40:50.120Z,958.21
2016-05-30T11:41:50.122Z,958.14
2016-05-30T11:42:50.141Z,958.16
2016-05-30T11:43:50.128Z,958.13
2016-05-30T11:44:50.131Z,958.19
2016-05-30T11:45:50.164Z,958.14
2016-05-30T11:46:50.188Z,958.25
2016-05-30T11:47:50.211Z,958.22
2016-05-30T11:48:50.250Z,958.2
2016-05-30T11:49:50.256Z,958.17
2016-05-30T11:50:50.286Z,958.18
2016-05-30T11:51:50.311Z,958.21
2016-05-30T11:52:50.306Z,958.2
2016-05-30T11:53:50.300Z,958.17
2016-05-30T11:54:50.326Z,958.22
2016-05-30T11:55:50.332Z,958.18
2016-05-30T11:56:50.337Z,958.19
2016-05-30T11:57:50.343Z,958.21
2016-05-30T11:58:50.348Z,958.22
2016-05-30T11:59:50.354Z,958.19
2016-05-30T12:00:50.358Z,958.21
2016-05-30T12:01:50.362Z,958.18
2016-05-30T12:02:50.381Z,958.2
2016-05-30T12:03:50.385Z,958.19
2016-05-30T12:04:50.388Z,958.19
2016-05-30T12:05:50.392Z,958.21
2016-05-30T12:06:50.411Z,958.23
2016-05-30T12:07:50.398Z,958.25
2016-05-30T12:08:50.401Z,958.16
2016-05-30T12:09:50.420Z,958.12
2016-05-30T12:10:50.423Z,958.11
2016-05-30T12:11:50.426Z,958.13
2016-05-30T12:12:50.428Z,958.13
2016-05-30T12:13:50.431Z,958.14
2016-05-30T12:14:50.433Z,958.13
2016-05-30T12:15:50.436Z,958.14
2016-05-30T12:16:50.439Z,958.12
2016-05-30T12:17:50.442Z,958.12
2016-05-30T12:18:50.460Z,958.12
2016-05-30T12:19:50.462Z,958.17
2016-05-30T12:20:50.465Z,958.19
2016-05-30T12:21:50.468Z,958.17
2016-05-30T12:22:50.470Z,958.14
2016-05-30T12:23:50.473Z,958.17
2016-05-30T12:24:50.476Z,958.19
2016-05-30T12:25:50.478Z,958.14
2016-05-30T12:26:50.481Z,958.16
2016-05-30T12:27:50.500Z,958.17
2016-05-30T12:28:50.502Z,958.2
2016-05-30T12:29:50.505Z,958.17
2016-05-30T12:30:50.508Z,958.19
2016-05-30T12:31:50.511Z,958.15
2016-05-30T12:32:50.513Z,958.19